Claes Sjostrom

Claes Sjostrom

Statistiques 2026

  • Courses courues : 184
  • Nb de victoires : 22
  • Nb de places : 74
  • Écart gagnant : 3
  • Réussite à la gagne : 12%
  • Réussite à la place : 40%
Musique : 3a 0a 1a 2a 2a 3a 1a 6a 1a 0a Da 4a 3a 1a 5a 1a 2a 5a
DateRangCatégorieAlloc.Dist.HippodromeChevalRed. KmSpé.
20/08/25 0 Trot 56 887€ 2 140m Swe-Solvalla Pure Diamond 1'12"6 Attelé
20/08/25 0 Trot 48 301€ 2 140m Swe-Solvalla Stepping Dreamboy 1'12"3 Attelé
20/08/25 6 Trot 56 887€ 2 140m Swe-Solvalla Micke Sting 1'11"2 Attelé
20/08/25 5 Trot 48 301€ 2 140m Swe-Solvalla Elusive Brodda 1'12"6 Attelé
20/08/25 0 Trot 12 165€ 2 140m Swe-Solvalla Eagle Kabb Attelé
22/08/25 1 Trot 7 406€ 2 640m Swe-Bollnas Fire Brigade 1'14"5 Attelé
22/08/25 4 Trot 7 674€ 3 140m Swe-Bollnas He's From Heaven 1'14"6 Attelé
22/08/25 5 Trot 7 406€ 2 140m Swe-Bollnas Beaver Creek 1'14"8 Attelé
22/08/25 1 Trot 4 052€ 1 660m Swe-Bollnas Sighni Burge 1'13"9 Attelé
23/08/25 6 Trot 44 723€ 1 609m Swe-Orebro Olle Sting 1'13"6 Attelé
23/08/25 1 Trot 44 723€ 1 609m Swe-Orebro Time To Run 1'12"9 Attelé
23/08/25 D Trot 44 723€ 1 609m Swe-Orebro Global General Attelé
23/08/25 4 Trot 29 428€ 1 609m Swe-Orebro S.G. Mistral 1'12"1 Attelé
23/08/25 6 Trot 178 891€ 1 609m Swe-Orebro You Bow To No One 1'12"1 Attelé
23/08/25 D Trot 24 911€ 2 140m Swe-Orebro Garment Chic Attelé
23/08/25 D Trot 178 891€ 1 609m Swe-Orebro Universe Tile Attelé
08/04/26 4 Trot 16 743€ 2 140m Swe-Solvalla Housekeeper 1'14"2 Attelé
11/03/26 6 Trot 17 056€ 2 140m Swe-Solvalla Gibson Brick 1'13"4 Attelé
18/03/26 3 Trot 10 701€ 2 140m Swe-Solvalla Floki 1'17"0 Attelé
18/03/26 2 Trot 12 710€ 2 140m Swe-Solvalla Time To Run 1'12"9 Attelé
18/03/26 3 Trot 21 168€ 2 140m Swe-Solvalla Neutron Star 1'14"4 Attelé
18/03/26 1 Trot 12 710€ 2 140m Swe-Solvalla You Bow To No One 1'14"6 Attelé
18/03/26 6 Trot 17 056€ 2 140m Swe-Solvalla Beaver Creek 1'14"3 Attelé
18/03/26 1 Trot 17 056€ 2 140m Swe-Solvalla Cruising Altitude 1'13"6 Attelé
25/03/26 1 Trot 10 602€ 2 140m Swe-Solvalla Kristian Croc 1'16"2 Attelé
25/03/26 2 Trot 16 111€ 2 140m Swe-Solvalla Ciao 1'15"9 Attelé
25/03/26 6 Trot 16 898€ 1 640m Swe-Solvalla Waypoint Sequence 1'12"3 Attelé
25/03/26 0 Trot 16 898€ 2 140m Swe-Solvalla Selective Calling 1'13"6 Attelé
25/03/26 4 Trot 16 898€ 2 140m Swe-Solvalla Solkattens Express 1'13"9 Attelé
10/01/26 0 Trot 27 546€ 1 640m Swe-Romme Quicka 1'14"1 Attelé
29/01/26 3 Trot 8 125€ 2 140m Swe-Gavle Vasterbo Tramp 1'15"4 Attelé
01/04/26 4 Trot 10 592€ 2 160m Swe-Solvalla Speedy Hard Vicane 1'15"4 Attelé
01/04/26 D Trot 16 096€ 2 140m Swe-Solvalla Ciao Attelé
01/04/26 3 Trot 16 883€ 2 140m Swe-Solvalla Olympia Sting 1'13"6 Attelé
01/04/26 3 Trot 12 997€ 2 140m Swe-Solvalla Carpaccio 1'15"0 Attelé
01/04/26 3 Trot 16 883€ 2 140m Swe-Solvalla Ray Of Sunshine 1'13"5 Attelé
08/04/26 4 Trot 15 963€ 2 140m Swe-Solvalla Backwood Gilda 1'16"9 Attelé
08/04/26 4 Trot 12 890€ 2 140m Swe-Solvalla Slivovitz Lover 1'12"9 Attelé
08/04/26 0 Trot 10 505€ 2 140m Swe-Solvalla Princess Irene 1'15"7 Attelé
22/04/26 3 Trot 12 878€ 2 140m Swe-Solvalla Happy Pride 1'13"8 Attelé
15/04/26 0 Trot 16 728€ 2 140m Swe-Solvalla Interwall 1'13"6 Attelé
15/04/26 D Trot 16 728€ 1 640m Swe-Solvalla Bohemian Maid Attelé
17/01/26 4 Trot 26 004€ 1 640m Swe-Eskilstuna Denali Doc 1'11"6 Attelé
20/03/26 3 Trot 8 639€ 2 640m Swe-Romme Vasterbo Tramp 1'15"4 Attelé
22/04/26 6 Trot 15 949€ 2 140m Swe-Solvalla Nefertite Sisu 1'17"2 Attelé
22/04/26 2 Trot 16 728€ 2 140m Swe-Solvalla Official Sox 1'12"9 Attelé
22/04/26 4 Trot 38 268€ 2 140m Swe-Solvalla Neutron Star 1'14"0 Attelé
22/04/26 1 Trot 38 268€ 2 140m Swe-Solvalla Icy Conditions 1'13"7 Attelé
15/04/26 2 Trot 20 394€ 2 140m Swe-Solvalla Fantastica Doda 1'10"9 Attelé
22/04/26 2 Trot 16 728€ 1 640m Swe-Solvalla Housekeeper 1'12"0 Attelé